Terminal Aerodrome Forecast
Issued by NWS Rapid City, SD

Home | Current Version | Previous Version | Text Only | Print | Product List | Glossary On
Versions: 1 2 3 4 5 6 7 8 9 10 11 12 13 14 15 16 17
000
FTUS43 KUNR 090524
TAFRAP
TAF
KRAP 090524Z 0906/1006 VRB03KT P6SM SCT200
     FM091000 09005KT P6SM SCT025 OVC100
     FM091300 06007KT P6SM BKN025 OVC035
     FM091700 06008KT P6SM BKN035=

USA.gov is the U.S. government's official web portal to all federal, state and local government web resources and services.